Time;durP1;ratioP1;P1;durP2;ratioP2;P2;SDS_P1;SDS_P2;PMS_P1;PMS_P2;Temp;Humidity;BMP_temperature;BMP_pressure;BME280_temperature;BME280_humidity;BME280_pressure;Samples;Min_cycle;Max_cycle;Signal;HPM_P1;HPM_P2
2021/04/13 00:01:12;;;;;;;18.30;16.42;;;;;;;;;;4113465;34;20068;-80
2021/04/13 00:03:54;;;;;;;18.35;16.08;;;;;;;;;;4117382;34;20115;-78
2021/04/13 00:06:25;;;;;;;17.00;14.63;;;;;;;;;;4105139;34;20104;-79
2021/04/13 00:08:58;;;;;;;16.12;14.43;;;;;;;;;;4102414;34;20527;-79
2021/04/13 00:11:26;;;;;;;16.80;15.07;;;;;;;;;;4116736;34;20151;-79
2021/04/13 00:14:00;;;;;;;19.25;14.35;;;;;;;;;;4103020;34;21591;-78
2021/04/13 00:16:30;;;;;;;16.12;14.52;;;;;;;;;;4119352;34;20104;-78
2021/04/13 00:18:58;;;;;;;20.75;18.77;;;;;;;;;;4115040;34;20522;-79
2021/04/13 00:21:29;;;;;;;20.02;17.92;;;;;;;;;;4115268;34;20053;-78
2021/04/13 00:23:58;;;;;;;18.73;16.90;;;;;;;;;;4117104;34;20453;-78
2021/04/13 00:26:29;;;;;;;19.00;16.73;;;;;;;;;;4134343;34;20068;-78
2021/04/13 00:28:59;;;;;;;17.00;14.68;;;;;;;;;;4115057;34;20120;-80
2021/04/13 00:31:40;;;;;;;19.27;14.68;;;;;;;;;;4117230;34;20122;-79
2021/04/13 00:34:14;;;;;;;16.40;14.80;;;;;;;;;;4115405;34;20515;-79
2021/04/13 00:36:42;;;;;;;17.45;15.32;;;;;;;;;;4116006;34;20157;-79
2021/04/13 00:39:15;;;;;;;16.67;15.00;;;;;;;;;;4112545;34;20125;-78
2021/04/13 00:41:54;;;;;;;18.00;15.48;;;;;;;;;;4119080;34;20140;-79
2021/04/13 00:44:23;;;;;;;15.77;14.07;;;;;;;;;;4137889;34;20103;-78
2021/04/13 00:47:03;;;;;;;18.48;15.07;;;;;;;;;;4124663;34;20202;-79
2021/04/13 00:49:36;;;;;;;17.65;15.85;;;;;;;;;;4118725;34;22799;-78
2021/04/13 00:52:10;;;;;;;17.05;12.90;;;;;;;;;;4120233;34;20116;-78
2021/04/13 00:54:39;;;;;;;16.65;15.13;;;;;;;;;;4123010;34;20139;-78
2021/04/13 00:57:12;;;;;;;22.15;19.85;;;;;;;;;;4115835;34;20171;-80
2021/04/13 00:59:40;;;;;;;25.42;22.73;;;;;;;;;;4118267;34;20053;-78
2021/04/13 01:02:10;;;;;;;20.85;18.67;;;;;;;;;;4125689;34;20132;-78
2021/04/13 01:04:49;;;;;;;21.80;19.05;;;;;;;;;;4119887;34;20116;-79
2021/04/13 01:07:19;;;;;;;20.88;17.73;;;;;;;;;;4121746;34;20060;-79
2021/04/13 01:09:48;;;;;;;14.63;11.73;;;;;;;;;;4119177;34;20381;-79
2021/04/13 01:12:23;;;;;;;6.87;1.92;;;;;;;;;;4116895;34;20749;-80
2021/04/13 01:14:53;;;;;;;6.28;2.17;;;;;;;;;;4121385;34;20052;-77
2021/04/13 01:17:24;;;;;;;5.00;2.10;;;;;;;;;;4129194;34;20075;-77
2021/04/13 01:19:53;;;;;;;4.70;2.78;;;;;;;;;;4118298;34;20095;-79
2021/04/13 01:22:35;;;;;;;7.32;2.87;;;;;;;;;;4121338;34;20060;-79
2021/04/13 01:25:24;;;;;;;3.20;2.15;;;;;;;;;;4120538;34;20160;-78
2021/04/13 01:27:54;;;;;;;5.60;2.20;;;;;;;;;;4115441;34;20056;-78
2021/04/13 01:30:23;;;;;;;5.10;1.70;;;;;;;;;;4117544;34;20536;-78
2021/04/13 01:32:51;;;;;;;2.60;1.50;;;;;;;;;;4120901;34;20179;-78
2021/04/13 01:35:29;;;;;;;5.25;1.80;;;;;;;;;;4108695;34;20088;-79
2021/04/13 01:38:17;;;;;;;12.37;6.55;;;;;;;;;;4122150;34;20489;-80
2021/04/13 01:43:24;;;;;;;22.17;19.77;;;;;;;;;;4120559;34;20079;-79
2021/04/13 01:45:52;;;;;;;22.10;19.77;;;;;;;;;;4120815;34;20662;-80
2021/04/13 01:48:20;;;;;;;22.08;18.80;;;;;;;;;;4120205;34;20358;-78
2021/04/13 01:50:54;;;;;;;23.17;18.08;;;;;;;;;;4115500;34;20135;-81
2021/04/13 01:53:22;;;;;;;;;;;;;;;;;;4119445;34;20354;-78
2021/04/13 01:55:58;;;;;;;22.20;20.08;;;;;;;;;;4119341;34;20699;-79
2021/04/13 01:58:33;;;;;;;21.52;18.90;;;;;;;;;;4119149;34;20096;-79
2021/04/13 02:01:09;;;;;;;23.87;20.30;;;;;;;;;;4119924;34;20068;-79
2021/04/13 02:03:42;;;;;;;22.30;18.42;;;;;;;;;;4124251;34;20131;-78
2021/04/13 02:06:22;;;;;;;22.70;17.20;;;;;;;;;;4122307;34;20202;-77
2021/04/13 02:08:52;;;;;;;20.37;18.30;;;;;;;;;;4119773;34;20585;-78
2021/04/13 02:11:24;;;;;;;20.15;18.20;;;;;;;;;;4121536;34;20140;-78
2021/04/13 02:14:02;;;;;;;19.62;17.73;;;;;;;;;;4123010;34;20120;-78
2021/04/13 02:16:35;;;;;;;19.70;17.73;;;;;;;;;;4118996;34;20123;-79
2021/04/13 02:19:06;;;;;;;19.20;17.20;;;;;;;;;;4122931;34;20458;-78
2021/04/13 02:21:40;;;;;;;21.17;18.95;;;;;;;;;;4125257;34;20113;-78
2021/04/13 02:24:10;;;;;;;23.35;20.62;;;;;;;;;;4117940;34;20126;-78
2021/04/13 02:26:43;;;;;;;23.77;21.25;;;;;;;;;;4115511;34;20088;-79
2021/04/13 02:29:12;;;;;;;16.42;14.87;;;;;;;;;;4120520;34;20076;-80
2021/04/13 02:31:49;;;;;;;21.87;18.00;;;;;;;;;;4123166;34;20497;-78
2021/04/13 02:34:17;;;;;;;10.38;9.35;;;;;;;;;;4115920;34;20517;-78
2021/04/13 02:36:48;;;;;;;18.20;14.30;;;;;;;;;;4120470;34;20524;-79
2021/04/13 02:39:39;;;;;;;16.90;15.13;;;;;;;;;;4125422;34;20112;-78
2021/04/13 02:42:14;;;;;;;20.05;18.15;;;;;;;;;;4119928;34;20061;-79
2021/04/13 02:44:42;;;;;;;16.08;14.48;;;;;;;;;;4119692;34;22377;-79
2021/04/13 02:47:13;;;;;;;20.85;18.80;;;;;;;;;;4121589;34;20196;-80
2021/04/13 02:49:42;;;;;;;20.88;17.95;;;;;;;;;;4120415;34;20065;-79
2021/04/13 02:52:15;;;;;;;22.73;17.73;;;;;;;;;;4122119;34;20061;-78
2021/04/13 02:54:54;;;;;;;19.95;17.85;;;;;;;;;;4121263;34;20112;-78
2021/04/13 02:57:25;;;;;;;22.20;19.35;;;;;;;;;;4118370;34;20057;-79
2021/04/13 02:59:58;;;;;;;26.65;24.33;;;;;;;;;;4122006;34;20070;-78
2021/04/13 03:02:40;;;;;;;26.67;24.20;;;;;;;;;;4121719;34;20480;-78
2021/04/13 03:05:09;;;;;;;25.88;23.48;;;;;;;;;;4119836;34;20151;-78
2021/04/13 03:07:41;;;;;;;27.08;24.33;;;;;;;;;;4101812;34;20091;-78
2021/04/13 03:10:15;;;;;;;26.40;23.65;;;;;;;;;;4117966;29;20090;31
2021/04/13 03:12:57;;;;;;;27.40;24.67;;;;;;;;;;4064804;35;20122;-93
2021/04/13 03:15:31;;;;;;;26.17;23.42;;;;;;;;;;4061360;35;20062;-95
2021/04/13 03:18:21;;;;;;;31.67;28.45;;;;;;;;;;4066099;35;20131;-95
2021/04/13 03:20:54;;;;;;;32.60;29.75;;;;;;;;;;4056018;35;20062;-95
2021/04/13 03:23:28;;;;;;;26.05;23.38;;;;;;;;;;4065302;35;20572;-94
2021/04/13 03:26:06;;;;;;;25.15;22.60;;;;;;;;;;4077348;35;20076;-92
2021/04/13 03:28:41;;;;;;;29.48;26.73;;;;;;;;;;4068647;35;20062;-93
2021/04/13 03:31:13;;;;;;;31.27;28.38;;;;;;;;;;4068775;35;20140;-94
2021/04/13 03:33:49;;;;;;;14.15;12.77;;;;;;;;;;4068600;35;20047;-93
2021/04/13 03:36:24;;;;;;;8.38;1.10;;;;;;;;;;4090593;35;20141;-93
2021/04/13 03:39:02;;;;;;;5.07;1.33;;;;;;;;;;4082595;35;20484;-93
2021/04/13 03:41:33;;;;;;;24.37;22.08;;;;;;;;;;4081175;35;20058;-92
2021/04/13 03:44:03;;;;;;;25.33;23.02;;;;;;;;;;4081640;35;20050;-93
2021/04/13 03:46:39;;;;;;;7.70;5.37;;;;;;;;;;4076712;35;20544;-96
2021/04/13 03:49:16;;;;;;;22.15;20.05;;;;;;;;;;4089944;35;20066;-95
2021/04/13 03:51:56;;;;;;;28.33;25.17;;;;;;;;;;4067789;35;20129;-93
2021/04/13 03:54:29;;;;;;;9.57;1.27;;;;;;;;;;4076681;35;20086;-94
2021/04/13 03:57:00;;;;;;;31.45;28.75;;;;;;;;;;4074087;35;20495;-94
2021/04/13 03:59:44;;;;;;;35.03;31.75;;;;;;;;;;4071437;35;20058;-94
2021/04/13 04:02:16;;;;;;;7.53;4.82;;;;;;;;;;4076589;35;20166;-93
2021/04/13 04:05:15;;;;;;;8.20;2.95;;;;;;;;;;4073210;35;20156;-94
2021/04/13 04:08:00;;;;;;;13.95;12.23;;;;;;;;;;4087052;35;20444;-93
2021/04/13 04:10:34;;;;;;;26.35;23.33;;;;;;;;;;4080088;35;20104;-95
2021/04/13 04:13:31;;;;;;;26.60;23.85;;;;;;;;;;4078344;35;20100;-92
2021/04/13 04:16:08;;;;;;;30.10;27.50;;;;;;;;;;4074486;35;20102;-92
2021/04/13 04:18:40;;;;;;;36.50;33.30;;;;;;;;;;4084694;35;20034;-94
2021/04/13 04:21:13;;;;;;;15.23;13.93;;;;;;;;;;4076404;35;20410;-93
2021/04/13 04:23:44;;;;;;;13.70;10.38;;;;;;;;;;4072058;35;20605;-93
2021/04/13 04:26:29;;;;;;;29.05;26.15;;;;;;;;;;4081662;35;20124;-94
2021/04/13 04:29:11;;;;;;;6.65;1.35;;;;;;;;;;4079349;35;20480;-94
2021/04/13 04:31:47;;;;;;;4.62;1.20;;;;;;;;;;4078094;35;20149;-93
2021/04/13 04:34:21;;;;;;;9.87;1.17;;;;;;;;;;4080982;35;20055;-94
2021/04/13 04:36:56;;;;;;;5.47;1.10;;;;;;;;;;4081694;35;20969;-94
2021/04/13 04:39:31;;;;;;;6.28;1.25;;;;;;;;;;4078749;35;20058;-93
2021/04/13 04:42:11;;;;;;;4.70;0.90;;;;;;;;;;4079167;35;20092;-94
2021/04/13 04:44:43;;;;;;;9.05;1.37;;;;;;;;;;4080708;35;20062;-93
2021/04/13 04:47:36;;;;;;;5.47;1.35;;;;;;;;;;4083372;35;20152;-93
2021/04/13 04:50:11;;;;;;;9.23;1.60;;;;;;;;;;4080382;35;20106;-94
2021/04/13 04:52:42;;;;;;;6.00;1.37;;;;;;;;;;4068487;35;20093;-94
2021/04/13 04:55:14;;;;;;;6.35;1.48;;;;;;;;;;4084628;35;20055;-92
2021/04/13 04:57:42;;;;;;;5.93;1.15;;;;;;;;;;4080987;35;20077;-94
2021/04/13 05:00:11;;;;;;;6.43;1.30;;;;;;;;;;4071298;35;20076;-93
2021/04/13 05:02:49;;;;;;;8.65;1.52;;;;;;;;;;4080592;35;20086;-92
2021/04/13 05:05:20;;;;;;;4.85;1.10;;;;;;;;;;4068530;35;20153;-93
2021/04/13 05:07:55;;;;;;;5.60;1.42;;;;;;;;;;4075214;35;20065;-95
2021/04/13 05:10:30;;;;;;;9.05;1.42;;;;;;;;;;4081284;35;20096;-95
2021/04/13 05:13:02;;;;;;;5.20;1.30;;;;;;;;;;4083228;35;20062;-93
2021/04/13 05:15:38;;;;;;;4.60;1.37;;;;;;;;;;4081266;35;20081;-92
2021/04/13 05:18:07;;;;;;;7.00;1.40;;;;;;;;;;4085262;35;20058;-93
2021/04/13 05:20:40;;;;;;;4.70;1.15;;;;;;;;;;4078056;35;20343;-94
2021/04/13 05:23:09;;;;;;;4.12;1.27;;;;;;;;;;4070185;35;20057;-95
2021/04/13 05:25:43;;;;;;;6.35;1.27;;;;;;;;;;4070471;35;20498;-95
2021/04/13 05:28:18;;;;;;;5.12;1.20;;;;;;;;;;4085150;35;20396;-93
2021/04/13 05:30:48;;;;;;;8.35;1.37;;;;;;;;;;4079995;35;20103;-94
2021/04/13 05:33:27;;;;;;;7.80;1.40;;;;;;;;;;4081194;35;20155;-95
2021/04/13 05:35:55;;;;;;;7.22;1.50;;;;;;;;;;4080880;35;20061;-94
2021/04/13 05:38:32;;;;;;;6.50;1.52;;;;;;;;;;4076129;35;20996;-95
2021/04/13 05:41:07;;;;;;;6.87;1.52;;;;;;;;;;4078035;35;20084;-94
2021/04/13 05:43:39;;;;;;;5.03;1.40;;;;;;;;;;4083289;35;20053;-94
2021/04/13 05:46:08;;;;;;;4.57;1.10;;;;;;;;;;4068487;35;20444;-95
2021/04/13 05:48:48;;;;;;;7.47;1.48;;;;;;;;;;4078659;35;20118;-93
2021/04/13 05:51:16;;;;;;;4.53;1.20;;;;;;;;;;4070951;35;20123;-93
2021/04/13 05:53:48;;;;;;;4.75;1.10;;;;;;;;;;4091021;35;20140;-95
2021/04/13 05:56:25;;;;;;;5.85;1.25;;;;;;;;;;4077353;35;20495;-93
2021/04/13 05:58:55;;;;;;;8.65;1.40;;;;;;;;;;4075461;35;20053;-93
2021/04/13 06:01:27;;;;;;;4.90;1.20;;;;;;;;;;4072803;35;20072;-93
2021/04/13 06:04:02;;;;;;;5.72;1.40;;;;;;;;;;4067285;35;20120;-94
2021/04/13 06:06:38;;;;;;;5.20;1.23;;;;;;;;;;4078941;35;20108;-93
2021/04/13 06:09:16;;;;;;;9.70;1.55;;;;;;;;;;4079887;35;20342;-94
2021/04/13 06:12:05;;;;;;;5.62;1.37;;;;;;;;;;4077176;35;20181;-94
2021/04/13 06:14:41;;;;;;;8.18;1.58;;;;;;;;;;4082348;35;20058;-94
2021/04/13 06:17:15;;;;;;;6.12;1.73;;;;;;;;;;4082256;35;20112;-94
2021/04/13 06:19:53;;;;;;;3.72;1.10;;;;;;;;;;4087980;35;20136;-93
2021/04/13 06:22:24;;;;;;;13.02;1.45;;;;;;;;;;4079841;35;20081;-92
2021/04/13 06:25:00;;;;;;;16.55;8.55;;;;;;;;;;4080330;35;20477;-94
2021/04/13 06:27:35;;;;;;;8.75;7.62;;;;;;;;;;4078562;35;20046;-93
2021/04/13 06:30:07;;;;;;;6.47;1.40;;;;;;;;;;4088791;35;20054;-95
2021/04/13 06:32:35;;;;;;;9.05;5.05;;;;;;;;;;4081560;35;20069;-95
2021/04/13 06:35:11;;;;;;;13.15;10.45;;;;;;;;;;4083790;35;20487;-94
2021/04/13 06:37:41;;;;;;;15.05;11.63;;;;;;;;;;4087297;35;20066;-95
2021/04/13 06:40:31;;;;;;;19.55;17.35;;;;;;;;;;4081088;35;20046;-94
2021/04/13 06:43:19;;;;;;;15.43;12.88;;;;;;;;;;4071836;35;20066;-93
2021/04/13 06:45:55;;;;;;;19.20;17.30;;;;;;;;;;4083005;35;20088;-93
2021/04/13 06:48:30;;;;;;;20.92;18.75;;;;;;;;;;4077739;35;20067;-94
2021/04/13 06:51:18;;;;;;;21.70;19.50;;;;;;;;;;4078989;35;20778;-93
2021/04/13 06:53:55;;;;;;;12.15;7.93;;;;;;;;;;4070207;35;20072;-94
2021/04/13 06:56:30;;;;;;;24.58;21.70;;;;;;;;;;4081898;35;20098;-93
2021/04/13 06:59:20;;;;;;;18.48;16.73;;;;;;;;;;4069913;35;20448;-94
2021/04/13 07:01:52;;;;;;;10.75;9.65;;;;;;;;;;4074942;35;20066;-94
2021/04/13 07:04:46;;;;;;;18.55;15.15;;;;;;;;;;4077283;35;20555;-93
2021/04/13 07:07:29;;;;;;;22.40;19.33;;;;;;;;;;4083597;35;20160;-93
2021/04/13 07:10:21;;;;;;;15.93;13.38;;;;;;;;;;4062942;35;20128;-93
2021/04/13 07:13:05;;;;;;;1.85;1.20;;;;;;;;;;4074040;35;20093;-94
2021/04/13 07:15:39;;;;;;;5.10;2.03;;;;;;;;;;4086386;35;20050;-93
2021/04/13 07:18:49;;;;;;;7.85;6.05;;;;;;;;;;4077950;35;20081;-94
2021/04/13 07:21:23;;;;;;;7.05;4.68;;;;;;;;;;4026847;35;20114;-93
2021/04/13 07:23:54;;;;;;;4.82;1.20;;;;;;;;;;4024241;35;20115;-94
2021/04/13 07:26:25;;;;;;;3.75;0.88;;;;;;;;;;4085713;35;20046;-94
2021/04/13 07:29:11;;;;;;;7.30;1.15;;;;;;;;;;4077471;35;20220;-93
2021/04/13 07:31:54;;;;;;;7.25;1.40;;;;;;;;;;4078563;35;20663;-93
2021/04/13 07:34:26;;;;;;;26.98;24.52;;;;;;;;;;4075300;35;21070;-94
2021/04/13 07:37:10;;;;;;;7.18;1.70;;;;;;;;;;4077486;35;20465;-93
2021/04/13 07:40:00;;;;;;;12.82;9.30;;;;;;;;;;4082932;35;20180;-93
2021/04/13 07:42:31;;;;;;;7.68;5.37;;;;;;;;;;4086229;35;20116;-95
2021/04/13 07:45:11;;;;;;;3.65;0.90;;;;;;;;;;4093339;34;20062;-94
2021/04/13 07:48:18;;;;;;;2.55;0.80;;;;;;;;;;4069390;35;20101;-95
2021/04/13 07:51:05;;;;;;;12.55;11.48;;;;;;;;;;4078910;35;20089;-94
2021/04/13 07:53:38;;;;;;;6.82;5.30;;;;;;;;;;4070465;35;20145;-96
2021/04/13 07:56:19;;;;;;;5.40;0.68;;;;;;;;;;4072442;35;20125;-95
2021/04/13 07:59:19;;;;;;;1.60;0.60;;;;;;;;;;4075167;35;20741;-95
2021/04/13 08:01:54;;;;;;;4.07;0.90;;;;;;;;;;4068189;35;20081;-94
2021/04/13 08:04:39;;;;;;;3.30;0.93;;;;;;;;;;4084491;35;20533;-96
2021/04/13 08:07:31;;;;;;;2.83;0.65;;;;;;;;;;4068690;35;20090;-95
2021/04/13 08:10:10;;;;;;;2.60;0.70;;;;;;;;;;4084698;35;20115;-96
2021/04/13 08:12:57;;;;;;;3.10;0.65;;;;;;;;;;4074427;35;20094;-95
2021/04/13 08:15:41;;;;;;;1.60;0.62;;;;;;;;;;4074874;35;20066;-93
2021/04/13 08:18:21;;;;;;;4.97;0.77;;;;;;;;;;4061531;35;20153;-95
2021/04/13 08:21:13;;;;;;;2.75;0.70;;;;;;;;;;4067401;35;20058;-92
2021/04/13 08:23:43;;;;;;;1.37;0.80;;;;;;;;;;4076277;35;20058;-93
2021/04/13 08:26:31;;;;;;;1.90;0.50;;;;;;;;;;4064526;35;20090;-93
2021/04/13 08:29:21;;;;;;;4.60;1.02;;;;;;;;;;4074537;35;20085;-94
2021/04/13 08:35:04;;;;;;;2.28;0.70;;;;;;;;;;4069778;35;20085;-95
2021/04/13 08:37:55;;;;;;;2.17;0.90;;;;;;;;;;4060787;35;20111;-95
2021/04/13 08:40:34;;;;;;;2.03;0.70;;;;;;;;;;4066591;35;21798;-96
2021/04/13 08:43:20;;;;;;;2.62;0.80;;;;;;;;;;4057986;35;20078;-94
2021/04/13 08:46:11;;;;;;;2.12;0.80;;;;;;;;;;4064629;35;20058;-96
2021/04/13 08:48:44;;;;;;;2.20;0.70;;;;;;;;;;4061155;35;20064;-96
2021/04/13 08:51:32;;;;;;;3.53;0.62;;;;;;;;;;4074113;35;20771;-95
2021/04/13 08:54:21;;;;;;;1.52;0.60;;;;;;;;;;4072605;35;20055;-93
2021/04/13 08:56:59;;;;;;;3.50;0.73;;;;;;;;;;4066400;35;20105;-93
2021/04/13 08:59:43;;;;;;;4.20;0.77;;;;;;;;;;4068367;35;20073;-94
2021/04/13 09:02:33;;;;;;;4.30;1.15;;;;;;;;;;4076235;35;20085;-95
2021/04/13 09:05:04;;;;;;;5.35;0.80;;;;;;;;;;4064389;35;20105;-96
2021/04/13 09:07:57;;;;;;;3.92;0.73;;;;;;;;;;4076067;35;20776;-94
2021/04/13 09:10:50;;;;;;;3.65;0.82;;;;;;;;;;4068089;35;20079;-96
2021/04/13 09:13:35;;;;;;;1.77;0.52;;;;;;;;;;4081134;35;20100;-93
2021/04/13 09:16:17;;;;;;;6.10;0.90;;;;;;;;;;4078074;35;20070;-95
2021/04/13 09:18:56;;;;;;;2.45;0.90;;;;;;;;;;4096441;35;20054;-96
2021/04/13 09:21:42;;;;;;;3.50;0.85;;;;;;;;;;4074344;35;20053;-96
2021/04/13 09:24:46;;;;;;;2.33;0.70;;;;;;;;;;4098294;35;20070;-94
2021/04/13 09:27:40;;;;;;;7.55;1.40;;;;;;;;;;4091956;35;20485;-96
2021/04/13 09:30:20;;;;;;;2.40;0.47;;;;;;;;;;4083567;35;20062;-95
2021/04/13 09:32:49;;;;;;;2.08;0.70;;;;;;;;;;4075806;35;20069;-95
2021/04/13 09:35:59;;;;;;;2.78;0.68;;;;;;;;;;4078899;35;20084;-95
2021/04/13 09:38:33;;;;;;;;;;;;;;;;;;4084077;35;21270;-96
2021/04/13 09:41:27;;;;;;;2.60;0.75;;;;;;;;;;4080481;35;20000;-94
2021/04/13 09:44:08;;;;;;;5.28;0.90;;;;;;;;;;4079516;35;20453;-95
2021/04/13 09:47:04;;;;;;;6.20;1.17;;;;;;;;;;4093179;35;20072;-96
2021/04/13 09:49:42;;;;;;;3.25;0.90;;;;;;;;;;4074705;35;20050;-95
2021/04/13 09:52:17;;;;;;;8.30;1.02;;;;;;;;;;4074528;35;20416;-94
2021/04/13 09:55:08;;;;;;;3.10;0.90;;;;;;;;;;4075627;35;20488;-96
2021/04/13 09:58:25;;;;;;;3.78;0.90;;;;;;;;;;4076054;35;20080;-96
2021/04/13 10:01:39;;;;;;;6.18;1.30;;;;;;;;;;4079730;35;20070;-96
2021/04/13 10:04:39;;;;;;;3.55;0.90;;;;;;;;;;4073641;35;20073;-96
2021/04/13 10:07:38;;;;;;;1.60;0.70;;;;;;;;;;4081746;35;20097;-96
2021/04/13 10:10:25;;;;;;;3.92;0.90;;;;;;;;;;4083816;35;20074;-96
2021/04/13 10:13:04;;;;;;;2.00;0.77;;;;;;;;;;4086702;35;20062;-96
2021/04/13 10:16:10;;;;;;;1.98;0.88;;;;;;;;;;4083643;35;20050;-96
2021/04/13 10:19:10;;;;;;;2.33;0.73;;;;;;;;;;4078869;35;20051;-96
2021/04/13 10:22:07;;;;;;;1.60;0.80;;;;;;;;;;4076809;35;20456;-96
2021/04/13 10:24:43;;;;;;;3.35;0.80;;;;;;;;;;4088365;35;20050;-96
2021/04/13 10:27:25;;;;;;;4.28;1.10;;;;;;;;;;4087416;35;20489;-96
2021/04/13 10:30:17;;;;;;;11.20;1.30;;;;;;;;;;4077691;35;20080;-96
2021/04/13 10:32:55;;;;;;;1.73;0.80;;;;;;;;;;4083482;35;20054;-95
2021/04/13 10:36:01;;;;;;;3.62;0.80;;;;;;;;;;4086214;35;20109;-94
2021/04/13 10:38:42;;;;;;;2.60;0.70;;;;;;;;;;4074668;35;20086;-96
2021/04/13 10:41:36;;;;;;;1.98;0.90;;;;;;;;;;4076060;35;20148;-96
2021/04/13 10:44:05;;;;;;;4.40;1.00;;;;;;;;;;4088079;35;20090;-95
2021/04/13 10:46:51;;;;;;;2.50;1.00;;;;;;;;;;4087029;35;20058;-96
2021/04/13 10:49:52;;;;;;;2.95;0.90;;;;;;;;;;4078227;35;20129;-94
2021/04/13 10:52:20;;;;;;;3.00;0.90;;;;;;;;;;4090781;35;20058;-96
2021/04/13 10:55:13;;;;;;;3.62;1.00;;;;;;;;;;4082419;35;20065;-96
2021/04/13 10:58:01;;;;;;;7.43;1.15;;;;;;;;;;4071110;35;20058;-96
2021/04/13 11:00:40;;;;;;;1.87;0.70;;;;;;;;;;4074426;35;20066;-96
2021/04/13 11:03:19;;;;;;;2.70;0.80;;;;;;;;;;4079500;35;20076;-94
2021/04/13 11:06:04;;;;;;;3.42;0.70;;;;;;;;;;4085398;35;20057;-96
2021/04/13 11:08:46;;;;;;;5.47;1.08;;;;;;;;;;4074259;35;20097;-95
2021/04/13 11:11:54;;;;;;;7.75;1.20;;;;;;;;;;4080457;35;20062;-96
2021/04/13 11:14:34;;;;;;;4.22;0.70;;;;;;;;;;4085844;35;20084;-96
2021/04/13 11:17:25;;;;;;;2.95;1.00;;;;;;;;;;4093556;34;20113;-79
2021/04/13 11:20:13;;;;;;;4.20;1.10;;;;;;;;;;4080322;35;20101;-78
2021/04/13 11:22:44;;;;;;;2.40;0.75;;;;;;;;;;4097021;35;20070;-78
2021/04/13 11:25:19;;;;;;;2.35;0.70;;;;;;;;;;4087079;34;20485;-79
2021/04/13 11:27:58;;;;;;;3.25;1.00;;;;;;;;;;4088735;34;20117;-78
2021/04/13 11:30:36;;;;;;;4.20;1.00;;;;;;;;;;4083961;34;20125;-79
2021/04/13 11:33:19;;;;;;;2.47;0.80;;;;;;;;;;4088506;34;20057;-78
2021/04/13 11:35:53;;;;;;;2.72;0.90;;;;;;;;;;4089795;34;20058;-78
2021/04/13 11:38:47;;;;;;;1.98;0.77;;;;;;;;;;4091370;34;20078;-78
2021/04/13 11:41:41;;;;;;;2.75;0.80;;;;;;;;;;4087854;35;20156;-77
2021/04/13 11:44:12;;;;;;;2.78;0.90;;;;;;;;;;4096091;34;20414;-79
2021/04/13 11:46:59;;;;;;;2.78;1.00;;;;;;;;;;4089073;34;20092;-78
2021/04/13 11:49:36;;;;;;;6.07;0.90;;;;;;;;;;4087854;34;20124;-78
2021/04/13 11:52:21;;;;;;;6.07;0.88;;;;;;;;;;4088373;34;20132;-79
2021/04/13 11:54:55;;;;;;;4.03;0.80;;;;;;;;;;4091489;34;20118;-78
2021/04/13 11:57:23;;;;;;;4.70;1.00;;;;;;;;;;4087064;34;20062;-79
2021/04/13 12:00:10;;;;;;;3.78;0.98;;;;;;;;;;4090948;34;20081;-80
2021/04/13 12:02:43;;;;;;;3.95;0.60;;;;;;;;;;4084886;34;20117;-78
2021/04/13 12:05:25;;;;;;;2.20;0.60;;;;;;;;;;4094305;34;20077;-78
2021/04/13 12:07:54;;;;;;;2.28;0.70;;;;;;;;;;4090498;34;20148;-79
2021/04/13 12:10:31;;;;;;;1.10;0.50;;;;;;;;;;4089039;34;20054;-77
2021/04/13 12:13:01;;;;;;;2.95;0.70;;;;;;;;;;4090407;34;20445;-77
2021/04/13 12:15:32;;;;;;;6.32;1.12;;;;;;;;;;4089989;34;20061;-77
2021/04/13 12:18:01;;;;;;;3.55;0.95;;;;;;;;;;4089570;34;20140;-78
2021/04/13 12:20:30;;;;;;;4.32;0.82;;;;;;;;;;4087645;34;20116;-78
2021/04/13 12:23:01;;;;;;;3.85;0.90;;;;;;;;;;4091083;34;20124;-78
2021/04/13 12:25:35;;;;;;;3.80;1.10;;;;;;;;;;4092170;34;20057;-77
2021/04/13 12:28:07;;;;;;;4.05;0.98;;;;;;;;;;4086766;34;20410;-77
2021/04/13 12:30:41;;;;;;;5.70;1.00;;;;;;;;;;4088960;34;20116;-77
2021/04/13 12:33:10;;;;;;;4.35;0.90;;;;;;;;;;4097922;35;20096;-79
2021/04/13 12:35:53;;;;;;;3.03;0.80;;;;;;;;;;4095451;34;20069;-76
2021/04/13 12:38:39;;;;;;;3.45;0.90;;;;;;;;;;4084534;34;20089;-79
2021/04/13 12:41:26;;;;;;;2.75;0.90;;;;;;;;;;4085141;34;20128;-77
2021/04/13 12:43:58;;;;;;;2.97;0.82;;;;;;;;;;4092882;34;20154;-79
2021/04/13 12:46:33;;;;;;;3.33;0.77;;;;;;;;;;4090867;34;20115;-77
2021/04/13 12:49:14;;;;;;;3.92;0.98;;;;;;;;;;4088022;34;20561;-77
2021/04/13 12:52:01;;;;;;;4.50;0.80;;;;;;;;;;4096337;34;20406;-77
2021/04/13 12:54:32;;;;;;;4.00;0.80;;;;;;;;;;4096533;34;20109;-77
2021/04/13 12:57:09;;;;;;;9.80;1.52;;;;;;;;;;4090152;34;20088;-76
2021/04/13 12:59:37;;;;;;;5.30;0.93;;;;;;;;;;4086651;34;20129;-76
2021/04/13 13:02:28;;;;;;;3.60;0.80;;;;;;;;;;4096544;34;20097;-78
2021/04/13 13:04:55;;;;;;;2.53;0.70;;;;;;;;;;4090931;34;20125;-78
2021/04/13 13:07:25;;;;;;;5.45;0.93;;;;;;;;;;4080805;34;20125;-76
2021/04/13 13:09:53;;;;;;;4.37;0.88;;;;;;;;;;4086115;34;20054;-79
2021/04/13 13:12:24;;;;;;;4.95;1.15;;;;;;;;;;4091517;35;20087;-77
2021/04/13 13:15:01;;;;;;;4.12;1.15;;;;;;;;;;4078889;34;20144;-78
2021/04/13 13:17:35;;;;;;;2.67;0.80;;;;;;;;;;4091213;34;20116;-77
2021/04/13 13:20:05;;;;;;;4.07;0.70;;;;;;;;;;4091409;34;20065;-77
2021/04/13 13:22:34;;;;;;;3.30;0.90;;;;;;;;;;4092575;34;20097;-77
2021/04/13 13:25:17;;;;;;;2.97;0.70;;;;;;;;;;4092535;34;20068;-78
2021/04/13 13:27:45;;;;;;;4.30;0.80;;;;;;;;;;4092361;34;20177;-78
2021/04/13 13:30:15;;;;;;;2.50;0.50;;;;;;;;;;4094716;34;20089;-78
2021/04/13 13:32:42;;;;;;;2.05;0.60;;;;;;;;;;4091059;34;20046;-78
2021/04/13 13:35:14;;;;;;;2.50;0.80;;;;;;;;;;4099652;34;20089;-76
2021/04/13 13:37:46;;;;;;;3.28;0.82;;;;;;;;;;4096912;34;20066;-79
2021/04/13 13:40:15;;;;;;;6.73;0.90;;;;;;;;;;4098257;34;20073;-77
2021/04/13 13:42:43;;;;;;;3.37;0.60;;;;;;;;;;4096669;34;20143;-78
2021/04/13 13:45:27;;;;;;;1.90;0.73;;;;;;;;;;4102482;34;20054;-79
2021/04/13 13:47:55;;;;;;;5.53;0.90;;;;;;;;;;4099282;34;20083;-77
2021/04/13 13:50:38;;;;;;;3.20;0.93;;;;;;;;;;4088273;34;20375;-80
2021/04/13 13:53:16;;;;;;;3.20;0.70;;;;;;;;;;4095093;34;20089;-77
2021/04/13 13:55:54;;;;;;;4.03;1.00;;;;;;;;;;4097388;34;20069;-77
2021/04/13 13:58:27;;;;;;;2.25;0.68;;;;;;;;;;4093487;35;20078;-77
2021/04/13 14:00:57;;;;;;;3.78;0.80;;;;;;;;;;4096541;34;20238;-77
2021/04/13 14:03:27;;;;;;;4.80;0.70;;;;;;;;;;4096966;34;20108;-78
2021/04/13 14:05:55;;;;;;;2.83;0.60;;;;;;;;;;4095558;34;20046;-79
2021/04/13 14:08:25;;;;;;;4.93;0.98;;;;;;;;;;4091180;34;20101;-78
2021/04/13 14:10:54;;;;;;;5.68;0.80;;;;;;;;;;4088404;34;20163;-78
2021/04/13 14:13:26;;;;;;;3.78;0.82;;;;;;;;;;4093436;34;20556;-77
2021/04/13 14:15:54;;;;;;;3.30;0.75;;;;;;;;;;4090580;34;20096;-80
2021/04/13 14:18:29;;;;;;;2.70;0.60;;;;;;;;;;4090471;34;20061;-77
2021/04/13 14:21:00;;;;;;;3.53;0.80;;;;;;;;;;4090606;34;20100;-77
2021/04/13 14:23:28;;;;;;;5.53;0.90;;;;;;;;;;4089057;34;20104;-79
2021/04/13 14:25:56;;;;;;;2.78;0.90;;;;;;;;;;4081847;34;20632;-78
2021/04/13 14:28:26;;;;;;;1.95;0.70;;;;;;;;;;4088608;34;20490;-78
2021/04/13 14:30:55;;;;;;;4.22;0.57;;;;;;;;;;4088625;34;20140;-77
2021/04/13 14:33:23;;;;;;;3.20;0.70;;;;;;;;;;4084076;34;20054;-79
2021/04/13 14:35:51;;;;;;;2.42;0.60;;;;;;;;;;4082088;34;20152;-76
2021/04/13 14:38:22;;;;;;;4.53;0.60;;;;;;;;;;4083639;34;20371;-78
2021/04/13 14:40:50;;;;;;;5.87;0.90;;;;;;;;;;4093156;34;20077;-78
2021/04/13 14:43:18;;;;;;;3.83;1.30;;;;;;;;;;4094581;34;20874;-78
2021/04/13 14:45:46;;;;;;;4.30;0.80;;;;;;;;;;4086351;34;22131;-77
2021/04/13 14:48:15;;;;;;;7.22;0.75;;;;;;;;;;4085406;34;20081;-77
2021/04/13 14:50:45;;;;;;;3.08;0.75;;;;;;;;;;4089727;34;20134;-77
2021/04/13 14:53:14;;;;;;;1.83;0.50;;;;;;;;;;4085160;34;20097;-76
2021/04/13 14:55:42;;;;;;;1.55;0.55;;;;;;;;;;4084564;34;20498;-78
2021/04/13 14:58:13;;;;;;;3.97;0.62;;;;;;;;;;4088770;34;20467;-78
2021/04/13 15:00:41;;;;;;;4.87;0.73;;;;;;;;;;4099851;34;20438;-80
2021/04/13 15:03:09;;;;;;;3.28;0.70;;;;;;;;;;4083345;34;20140;-78
2021/04/13 15:05:38;;;;;;;2.87;0.60;;;;;;;;;;4091693;34;20497;-79
2021/04/13 15:08:07;;;;;;;3.87;0.85;;;;;;;;;;4093329;34;20057;-76
2021/04/13 15:10:36;;;;;;;3.67;0.77;;;;;;;;;;4090624;34;20168;-77
2021/04/13 15:13:05;;;;;;;6.37;0.73;;;;;;;;;;4098378;34;20533;-77
2021/04/13 15:15:33;;;;;;;6.68;0.80;;;;;;;;;;4090969;34;20105;-77
2021/04/13 15:18:05;;;;;;;4.18;0.68;;;;;;;;;;4082755;34;20476;-78
2021/04/13 15:20:35;;;;;;;3.23;0.70;;;;;;;;;;4087625;34;20073;-79
2021/04/13 15:23:03;;;;;;;2.33;0.70;;;;;;;;;;4077114;34;20627;-79
2021/04/13 15:25:31;;;;;;;3.42;0.70;;;;;;;;;;4082989;34;20430;-78
2021/04/13 15:28:01;;;;;;;2.10;0.75;;;;;;;;;;4093197;34;20070;-77
2021/04/13 15:30:29;;;;;;;2.55;0.60;;;;;;;;;;4083461;34;20165;-78
2021/04/13 15:32:59;;;;;;;1.85;0.75;;;;;;;;;;4083307;34;20783;-77
2021/04/13 15:35:35;;;;;;;3.75;0.82;;;;;;;;;;4094021;34;20097;-80
2021/04/13 15:38:05;;;;;;;1.83;0.60;;;;;;;;;;4096137;34;20600;-79
2021/04/13 15:40:36;;;;;;;3.05;0.77;;;;;;;;;;4089036;34;20066;-77